Time;durP1;ratioP1;P1;durP2;ratioP2;P2;SDS_P1;SDS_P2;PMS_P1;PMS_P2;Temp;Humidity;BMP_temperature;BMP_pressure;BME280_temperature;BME280_humidity;BME280_pressure;Samples;Min_cycle;Max_cycle;Signal;HPM_P1;HPM_P2
2023/04/22 00:01:37;;;;;;;10.98;7.65;;;12.90;99.90;;;;;;4950463;28;20053;-64
2023/04/22 00:04:03;;;;;;;10.52;7.00;;;12.80;99.90;;;;;;4949855;28;20051;-64
2023/04/22 00:06:30;;;;;;;9.02;6.80;;;12.80;99.90;;;;;;4926812;28;20043;-64
2023/04/22 00:08:56;;;;;;;10.70;7.53;;;12.80;99.90;;;;;;4951104;28;20058;-64
2023/04/22 00:11:22;;;;;;;9.70;7.05;;;12.80;99.90;;;;;;4958108;28;20051;-64
2023/04/22 00:13:47;;;;;;;9.60;7.13;;;12.80;99.90;;;;;;4959890;28;20070;-65
2023/04/22 00:16:13;;;;;;;11.23;7.32;;;12.70;99.90;;;;;;4930283;28;20102;-64
2023/04/22 00:18:39;;;;;;;10.32;7.07;;;12.70;99.90;;;;;;4949046;28;20205;-65
2023/04/22 00:21:06;;;;;;;7.88;6.97;;;12.70;99.90;;;;;;4926486;28;20050;-65
2023/04/22 00:23:32;;;;;;;8.43;6.78;;;12.70;99.90;;;;;;4958013;28;20632;-64
2023/04/22 00:25:58;;;;;;;14.68;6.55;;;12.70;99.90;;;;;;4961258;28;20042;-65
2023/04/22 00:28:24;;;;;;;9.32;7.43;;;12.70;99.90;;;;;;4962580;28;20146;-65
2023/04/22 00:30:50;;;;;;;9.52;6.38;;;12.70;99.90;;;;;;4943927;28;20055;-65
2023/04/22 00:33:15;;;;;;;7.75;7.00;;;12.60;99.90;;;;;;4966256;28;20134;-64
2023/04/22 00:35:41;;;;;;;9.90;6.75;;;12.70;99.90;;;;;;4959523;28;20049;-64
2023/04/22 00:38:07;;;;;;;10.02;7.88;;;12.60;99.90;;;;;;4961448;28;20051;-64
2023/04/22 00:40:32;;;;;;;10.70;7.68;;;12.60;99.90;;;;;;4959201;28;20064;-64
2023/04/22 00:42:59;;;;;;;9.02;6.80;;;12.50;99.90;;;;;;4952434;28;20118;-64
2023/04/22 00:45:25;;;;;;;7.85;6.97;;;12.50;99.90;;;;;;4959898;28;20055;-64
2023/04/22 00:47:51;;;;;;;8.35;7.10;;;12.50;99.90;;;;;;4945945;28;20056;-64
2023/04/22 00:50:17;;;;;;;10.85;7.15;;;12.40;99.90;;;;;;4962412;28;20136;-65
2023/04/22 00:52:43;;;;;;;8.55;7.18;;;12.50;99.90;;;;;;4960219;28;20145;-64
2023/04/22 00:55:10;;;;;;;8.63;7.53;;;12.40;99.90;;;;;;4976628;28;20089;-64
2023/04/22 00:57:37;;;;;;;10.82;7.07;;;12.40;99.90;;;;;;4957246;28;20047;-65
2023/04/22 01:00:05;;;;;;;9.45;7.75;;;12.40;99.90;;;;;;4952306;28;20035;-65
2023/04/22 01:02:31;;;;;;;8.27;7.25;;;12.30;99.90;;;;;;4941162;28;20149;-64
2023/04/22 01:04:57;;;;;;;8.52;6.95;;;12.30;99.90;;;;;;4947498;28;20054;-65
2023/04/22 01:07:23;;;;;;;9.93;7.35;;;12.20;99.90;;;;;;4962707;28;20177;-64
2023/04/22 01:09:49;;;;;;;9.35;6.50;;;12.20;99.90;;;;;;4959249;28;20607;-64
2023/04/22 01:12:15;;;;;;;8.32;7.00;;;12.20;99.90;;;;;;4940730;28;20050;-65
2023/04/22 01:14:41;;;;;;;10.38;7.90;;;12.20;99.90;;;;;;4952003;28;20490;-65
2023/04/22 01:17:09;;;;;;;9.82;7.82;;;12.10;99.90;;;;;;4911413;28;20047;-64
2023/04/22 01:19:36;;;;;;;9.77;8.02;;;12.10;99.90;;;;;;4952987;28;20137;-65
2023/04/22 01:22:02;;;;;;;10.05;7.90;;;12.00;99.90;;;;;;4957640;28;20049;-64
2023/04/22 01:24:28;;;;;;;9.05;7.57;;;11.90;99.90;;;;;;4946279;28;20093;-64
2023/04/22 01:26:54;;;;;;;12.13;8.43;;;11.90;99.90;;;;;;4952209;28;20038;-64
2023/04/22 01:29:20;;;;;;;12.75;8.95;;;11.80;99.90;;;;;;4944168;28;20112;-64
2023/04/22 01:31:46;;;;;;;11.38;8.90;;;11.80;99.90;;;;;;4960332;28;20034;-64
2023/04/22 01:34:12;;;;;;;11.35;9.10;;;11.80;99.90;;;;;;4950390;28;20050;-64
2023/04/22 01:36:38;;;;;;;11.20;9.25;;;11.80;99.90;;;;;;4944790;28;20047;-64
2023/04/22 01:39:04;;;;;;;11.40;9.75;;;11.70;99.90;;;;;;4970765;28;20130;-65
2023/04/22 01:41:30;;;;;;;13.65;8.93;;;11.70;99.90;;;;;;4947534;28;20175;-64
2023/04/22 01:43:58;;;;;;;9.68;8.50;;;11.70;99.90;;;;;;4959223;28;20046;-65
2023/04/22 01:46:23;;;;;;;9.80;8.50;;;11.70;99.90;;;;;;4960520;28;20558;-65
2023/04/22 01:48:50;;;;;;;12.50;9.13;;;11.70;99.90;;;;;;4945094;28;20034;-65
2023/04/22 01:51:19;;;;;;;9.63;8.45;;;11.70;99.90;;;;;;4954703;28;20050;-64
2023/04/22 01:53:47;;;;;;;10.77;9.25;;;11.60;99.90;;;;;;4948814;28;20165;-64
2023/04/22 01:56:13;;;;;;;9.45;8.52;;;11.60;99.90;;;;;;4956067;28;20061;-65
2023/04/22 01:58:39;;;;;;;12.63;9.32;;;11.60;99.90;;;;;;4939197;28;20086;-64
2023/04/22 02:01:07;;;;;;;10.38;8.50;;;11.60;99.90;;;;;;4956056;28;20097;-65
2023/04/22 02:03:32;;;;;;;10.52;8.68;;;11.60;99.90;;;;;;4934499;28;20166;-64
2023/04/22 02:05:58;;;;;;;13.73;8.90;;;11.50;99.90;;;;;;4955904;28;20125;-64
2023/04/22 02:08:24;;;;;;;11.57;8.15;;;11.50;99.90;;;;;;4942312;28;20055;-64
2023/04/22 02:10:50;;;;;;;10.07;8.23;;;11.50;99.90;;;;;;4940966;28;20061;-64
2023/04/22 02:13:15;;;;;;;13.60;8.95;;;11.50;99.90;;;;;;4955640;28;20169;-64
2023/04/22 02:15:41;;;;;;;10.98;8.48;;;11.40;99.90;;;;;;4943456;28;20389;-64
2023/04/22 02:18:09;;;;;;;9.95;7.60;;;11.40;99.90;;;;;;4951244;28;20798;-64
2023/04/22 02:20:35;;;;;;;12.10;9.00;;;11.40;99.90;;;;;;4953713;28;20050;-65
2023/04/22 02:23:01;;;;;;;10.57;8.57;;;11.30;99.90;;;;;;4957604;28;20038;-64
2023/04/22 02:25:27;;;;;;;9.77;7.80;;;11.30;99.90;;;;;;4946996;28;20042;-64
2023/04/22 02:27:53;;;;;;;10.50;8.18;;;11.30;99.90;;;;;;4945670;28;20112;-64
2023/04/22 02:30:19;;;;;;;9.52;8.52;;;11.20;99.90;;;;;;4920955;28;20042;-64
2023/04/22 02:32:45;;;;;;;12.45;8.32;;;11.20;99.90;;;;;;4941420;28;20061;-64
2023/04/22 02:35:11;;;;;;;10.93;9.80;;;11.20;99.90;;;;;;4959846;28;20053;-64
2023/04/22 02:37:37;;;;;;;10.32;8.52;;;11.20;99.90;;;;;;4942658;28;20038;-64
2023/04/22 02:40:03;;;;;;;9.38;8.15;;;11.20;99.90;;;;;;4950433;28;20113;-64
2023/04/22 02:42:29;;;;;;;13.68;10.55;;;11.20;99.90;;;;;;4947998;28;20044;-64
2023/04/22 02:44:55;;;;;;;12.32;10.10;;;11.10;99.90;;;;;;4928912;28;20038;-64
2023/04/22 02:47:22;;;;;;;12.43;10.02;;;11.10;99.90;;;;;;4950258;28;20049;-64
2023/04/22 02:49:48;;;;;;;14.30;10.73;;;11.10;99.90;;;;;;4947856;28;20509;-63
2023/04/22 02:52:13;;;;;;;14.13;9.98;;;11.10;99.90;;;;;;4939145;28;20057;-65
2023/04/22 02:54:39;;;;;;;14.88;9.73;;;11.10;99.90;;;;;;4941605;28;20401;-64
2023/04/22 02:57:05;;;;;;;11.57;9.93;;;11.00;99.90;;;;;;4956975;28;20038;-64
2023/04/22 02:59:31;;;;;;;12.85;10.30;;;11.00;99.90;;;;;;4945032;28;20497;-64
2023/04/22 03:01:56;;;;;;;12.95;10.32;;;11.00;99.90;;;;;;4954629;28;20038;-64
2023/04/22 03:04:24;;;;;;;11.95;9.73;;;11.00;99.90;;;;;;4950567;28;20821;-64
2023/04/22 03:06:50;;;;;;;16.35;11.05;;;11.00;99.90;;;;;;4940750;28;20042;-64
2023/04/22 03:09:16;;;;;;;12.40;10.70;;;10.90;99.90;;;;;;4953297;28;20518;-64
2023/04/22 03:11:43;;;;;;;13.18;10.70;;;10.90;99.90;;;;;;4959581;28;20066;-65
2023/04/22 03:14:09;;;;;;;11.90;9.95;;;10.90;99.90;;;;;;4935274;28;20059;-65
2023/04/22 03:16:35;;;;;;;13.38;10.50;;;10.90;99.90;;;;;;4939290;28;20493;-65
2023/04/22 03:19:01;;;;;;;11.98;9.98;;;10.90;99.90;;;;;;4950381;28;20039;-64
2023/04/22 03:21:27;;;;;;;14.52;10.93;;;10.90;99.90;;;;;;4912570;28;20101;-64
2023/04/22 03:23:53;;;;;;;14.98;11.23;;;10.90;99.90;;;;;;4953769;28;20038;-64
2023/04/22 03:26:19;;;;;;;13.95;9.70;;;10.80;99.90;;;;;;4935808;28;20054;-64
2023/04/22 03:28:46;;;;;;;12.27;10.15;;;10.80;99.90;;;;;;4953332;28;20859;-64
2023/04/22 03:31:11;;;;;;;11.85;10.23;;;10.80;99.90;;;;;;4935062;28;20078;-64
2023/04/22 03:33:37;;;;;;;13.95;10.65;;;10.80;99.90;;;;;;4949486;28;20153;-65
2023/04/22 03:36:03;;;;;;;17.27;11.32;;;10.80;99.90;;;;;;4955867;28;20056;-63
2023/04/22 03:38:29;;;;;;;15.98;10.77;;;10.80;99.90;;;;;;4954191;28;20169;-64
2023/04/22 03:40:55;;;;;;;13.32;10.25;;;10.70;99.90;;;;;;4950842;28;20042;-64
2023/04/22 03:43:20;;;;;;;15.73;10.65;;;10.70;99.90;;;;;;4950478;28;20093;-65
2023/04/22 03:45:47;;;;;;;12.25;10.77;;;10.70;99.90;;;;;;4938358;28;20040;-64
2023/04/22 03:48:13;;;;;;;14.90;10.20;;;10.70;99.90;;;;;;4953074;28;20397;-64
2023/04/22 03:50:38;;;;;;;12.40;10.40;;;10.70;99.90;;;;;;4947079;28;20050;-65
2023/04/22 03:53:04;;;;;;;13.73;10.73;;;10.70;99.90;;;;;;4951364;28;20141;-64
2023/04/22 03:55:30;;;;;;;14.07;9.73;;;10.70;99.90;;;;;;4954211;28;20043;-65
2023/04/22 03:57:55;;;;;;;12.23;9.52;;;10.70;99.90;;;;;;4943188;28;20141;-64
2023/04/22 04:00:21;;;;;;;11.52;9.93;;;10.70;99.90;;;;;;4940753;28;20034;-65
2023/04/22 04:02:47;;;;;;;14.70;9.73;;;10.70;99.90;;;;;;4951438;28;20061;-65
2023/04/22 04:05:12;;;;;;;13.90;10.48;;;10.70;99.90;;;;;;4967927;28;20046;-64
2023/04/22 04:07:38;;;;;;;14.85;9.73;;;10.70;99.90;;;;;;4940353;28;20129;-64
2023/04/22 04:10:05;;;;;;;12.23;10.07;;;10.70;99.90;;;;;;4938366;28;20043;-64
2023/04/22 04:12:30;;;;;;;10.98;9.30;;;10.70;99.90;;;;;;4944366;28;20040;-65
2023/04/22 04:14:56;;;;;;;14.35;10.63;;;10.60;99.90;;;;;;4959405;28;20501;-65
2023/04/22 04:17:24;;;;;;;14.80;10.23;;;10.70;99.90;;;;;;4949898;28;20085;-64
2023/04/22 04:19:51;;;;;;;12.13;9.82;;;10.60;99.90;;;;;;4947551;28;20050;-64
2023/04/22 04:22:17;;;;;;;12.05;9.43;;;10.60;99.90;;;;;;4959271;28;20050;-64
2023/04/22 04:24:43;;;;;;;12.48;9.85;;;10.60;99.90;;;;;;4937803;28;20051;-65
2023/04/22 04:27:10;;;;;;;13.98;9.80;;;10.60;99.90;;;;;;4941770;28;20039;-64
2023/04/22 04:29:36;;;;;;;13.95;10.02;;;10.60;99.90;;;;;;4953296;28;20053;-65
2023/04/22 04:32:03;;;;;;;14.60;11.30;;;10.60;99.90;;;;;;4942331;28;20484;-65
2023/04/22 04:34:31;;;;;;;17.38;13.55;;;10.60;99.90;;;;;;4947905;28;20042;-65
2023/04/22 04:36:57;;;;;;;15.65;12.68;;;10.60;99.90;;;;;;4938944;28;20537;-65
2023/04/22 04:39:25;;;;;;;12.50;11.20;;;10.60;99.90;;;;;;4971170;28;20046;-64
2023/04/22 04:41:53;;;;;;;15.93;12.93;;;10.60;99.90;;;;;;4953098;28;20046;-65
2023/04/22 04:44:20;;;;;;;17.08;13.00;;;10.60;99.90;;;;;;4951278;28;20472;-64
2023/04/22 04:46:47;;;;;;;19.10;12.77;;;10.50;99.90;;;;;;4948429;28;20062;-65
2023/04/22 04:49:12;;;;;;;14.75;11.63;;;10.50;99.90;;;;;;4943360;28;20405;-64
2023/04/22 04:51:38;;;;;;;14.88;12.30;;;10.50;99.90;;;;;;4941508;28;20043;-65
2023/04/22 04:54:04;;;;;;;14.23;11.90;;;10.50;99.90;;;;;;4953624;28;20497;-65
2023/04/22 04:56:30;;;;;;;13.80;11.75;;;10.50;99.90;;;;;;4945840;28;20034;-65
2023/04/22 04:58:56;;;;;;;14.63;11.32;;;10.50;99.90;;;;;;4932475;28;20109;-65
2023/04/22 05:01:22;;;;;;;18.40;12.23;;;10.50;99.90;;;;;;4949785;28;20042;-64
2023/04/22 05:03:48;;;;;;;15.38;12.40;;;10.50;99.90;;;;;;4928506;28;20047;-65
2023/04/22 05:06:14;;;;;;;17.30;12.32;;;10.60;99.90;;;;;;4944151;28;20057;-65
2023/04/22 05:08:39;;;;;;;15.25;12.15;;;10.60;99.90;;;;;;4943611;28;20046;-65
2023/04/22 05:11:05;;;;;;;16.38;12.73;;;10.60;99.90;;;;;;4949165;28;20569;-64
2023/04/22 05:13:33;;;;;;;15.27;13.27;;;10.60;99.90;;;;;;4945982;28;20466;-66
2023/04/22 05:15:59;;;;;;;17.50;14.25;;;10.60;99.90;;;;;;4954304;28;20038;-66
2023/04/22 05:18:25;;;;;;;14.93;12.70;;;10.60;99.90;;;;;;4952422;28;20412;-66
2023/04/22 05:20:51;;;;;;;13.32;11.88;;;10.60;99.90;;;;;;4946752;28;20047;-66
2023/04/22 05:23:17;;;;;;;14.35;12.30;;;10.60;99.90;;;;;;4939868;28;20054;-66
2023/04/22 05:25:42;;;;;;;16.08;12.02;;;10.60;99.90;;;;;;4948761;28;20092;-66
2023/04/22 05:28:08;;;;;;;16.33;12.50;;;10.60;99.90;;;;;;4933880;28;20046;-66
2023/04/22 05:30:34;;;;;;;16.08;12.50;;;10.60;99.90;;;;;;4948219;28;21127;-66
2023/04/22 05:33:00;;;;;;;18.52;12.27;;;10.60;99.90;;;;;;4933151;28;20054;-66
2023/04/22 05:35:26;;;;;;;16.17;12.70;;;10.60;99.90;;;;;;4932432;28;20141;-66
2023/04/22 05:37:51;;;;;;;15.00;12.73;;;10.50;99.90;;;;;;4950300;28;20088;-66
2023/04/22 05:40:17;;;;;;;16.70;12.77;;;10.60;99.90;;;;;;4950756;28;20045;-66
2023/04/22 05:42:43;;;;;;;15.45;13.02;;;10.50;99.90;;;;;;4947936;28;20445;-66
2023/04/22 05:45:09;;;;;;;14.88;12.55;;;10.60;99.90;;;;;;4952696;28;20053;-66
2023/04/22 05:47:35;;;;;;;15.68;12.55;;;10.60;99.90;;;;;;4954901;28;20042;-66
2023/04/22 05:50:01;;;;;;;15.32;12.50;;;10.60;99.90;;;;;;4955060;28;20131;-66
2023/04/22 05:52:26;;;;;;;16.08;12.68;;;10.60;99.90;;;;;;4959354;28;20034;-66
2023/04/22 05:54:52;;;;;;;16.73;12.95;;;10.70;99.90;;;;;;4951123;28;20402;-66
2023/04/22 05:57:18;;;;;;;16.90;13.35;;;10.70;99.90;;;;;;4972651;28;20058;-66
2023/04/22 05:59:43;;;;;;;16.65;12.93;;;10.80;99.90;;;;;;4951082;28;20065;-67
2023/04/22 06:02:09;;;;;;;14.30;12.27;;;10.80;99.90;;;;;;4914615;28;20102;-67
2023/04/22 06:04:35;;;;;;;15.23;12.57;;;10.90;99.90;;;;;;4951496;28;20046;-66
2023/04/22 06:07:00;;;;;;;18.15;12.43;;;10.90;99.90;;;;;;4935904;28;20399;-67
2023/04/22 06:09:26;;;;;;;14.38;12.38;;;10.90;99.90;;;;;;4951419;28;20047;-66
2023/04/22 06:11:52;;;;;;;14.98;12.73;;;11.00;99.90;;;;;;4924992;28;20046;-67
2023/04/22 06:14:17;;;;;;;16.35;13.10;;;11.00;99.90;;;;;;4950771;28;20133;-66
2023/04/22 06:16:43;;;;;;;15.68;12.20;;;11.00;99.90;;;;;;4942774;28;20557;-66
2023/04/22 06:19:09;;;;;;;15.43;12.35;;;11.00;99.90;;;;;;4935963;28;20078;-66
2023/04/22 06:21:37;;;;;;;14.15;12.02;;;11.00;99.90;;;;;;4947708;28;20049;-67
2023/04/22 06:24:04;;;;;;;17.60;12.95;;;11.10;99.90;;;;;;4957643;28;20042;-66
2023/04/22 06:26:30;;;;;;;18.48;12.13;;;11.10;99.90;;;;;;4952503;28;20049;-66
2023/04/22 06:28:56;;;;;;;12.45;11.02;;;11.10;99.90;;;;;;4940845;28;20052;-66
2023/04/22 06:31:22;;;;;;;14.05;12.38;;;11.10;99.90;;;;;;4936934;28;20397;-67
2023/04/22 06:33:47;;;;;;;18.42;11.55;;;11.10;99.90;;;;;;4950866;28;20038;-66
2023/04/22 06:36:13;;;;;;;14.30;11.80;;;11.10;99.90;;;;;;4947129;28;20038;-66
2023/04/22 06:38:39;;;;;;;16.60;11.40;;;11.10;99.90;;;;;;4949701;28;21016;-66
2023/04/22 06:41:05;;;;;;;14.73;11.43;;;11.10;99.90;;;;;;4950814;28;20504;-66
2023/04/22 06:43:31;;;;;;;13.50;11.32;;;11.20;99.90;;;;;;4949167;28;20110;-66
2023/04/22 06:45:56;;;;;;;13.45;11.30;;;11.30;99.90;;;;;;4955086;28;20035;-67
2023/04/22 06:48:23;;;;;;;14.25;11.50;;;11.30;99.90;;;;;;4950401;28;20077;-66
2023/04/22 06:50:49;;;;;;;14.57;11.73;;;11.30;99.90;;;;;;4948471;28;20366;-66
2023/04/22 06:53:14;;;;;;;16.38;11.55;;;11.40;99.90;;;;;;4951838;28;20108;-66
2023/04/22 06:55:40;;;;;;;16.60;11.65;;;11.50;99.90;;;;;;4953464;28;20041;-67
2023/04/22 06:58:06;;;;;;;15.82;11.55;;;11.50;99.90;;;;;;4952474;28;20112;-67
2023/04/22 07:00:32;;;;;;;14.15;11.93;;;11.60;99.90;;;;;;4940369;28;20046;-67
2023/04/22 07:02:57;;;;;;;17.67;12.00;;;11.60;99.90;;;;;;4947355;28;20061;-66
2023/04/22 07:05:23;;;;;;;14.18;11.40;;;11.70;99.90;;;;;;4947053;28;20070;-67
2023/04/22 07:07:49;;;;;;;17.00;11.23;;;11.70;99.90;;;;;;4947846;28;20053;-66
2023/04/22 07:10:14;;;;;;;13.10;11.73;;;11.80;99.90;;;;;;4947208;28;20051;-66
2023/04/22 07:12:40;;;;;;;12.82;11.00;;;11.90;99.90;;;;;;4964217;28;20117;-66
2023/04/22 07:15:06;;;;;;;13.63;10.90;;;11.90;99.90;;;;;;4929551;28;20125;-67
2023/04/22 07:17:32;;;;;;;11.68;10.27;;;12.00;99.90;;;;;;4959063;28;20039;-66
2023/04/22 07:19:58;;;;;;;13.95;10.98;;;12.10;99.90;;;;;;4944948;28;20062;-66
2023/04/22 07:22:24;;;;;;;11.80;10.25;;;12.10;99.90;;;;;;4940229;28;20386;-66
2023/04/22 07:24:49;;;;;;;13.30;10.80;;;12.20;99.90;;;;;;4950122;28;20054;-66
2023/04/22 07:27:16;;;;;;;12.05;10.68;;;12.20;99.90;;;;;;4952023;28;20050;-67
2023/04/22 07:29:41;;;;;;;16.65;10.93;;;12.30;99.90;;;;;;4949303;28;20049;-66
2023/04/22 07:32:07;;;;;;;12.88;10.23;;;12.30;99.90;;;;;;4950525;28;20047;-66
2023/04/22 07:34:33;;;;;;;13.57;10.25;;;12.40;99.90;;;;;;4951680;28;20389;-66
2023/04/22 07:36:59;;;;;;;11.73;10.48;;;12.50;99.90;;;;;;4952179;28;20057;-67
2023/04/22 07:39:25;;;;;;;11.20;9.93;;;12.60;99.90;;;;;;4951628;28;20545;-66
2023/04/22 07:41:52;;;;;;;14.70;10.48;;;12.60;99.90;;;;;;4952603;28;20496;-66
2023/04/22 07:44:20;;;;;;;12.68;10.02;;;12.70;99.90;;;;;;4965497;28;20496;-66
2023/04/22 07:46:47;;;;;;;12.32;10.40;;;12.80;99.90;;;;;;4965838;28;20157;-67
2023/04/22 07:49:12;;;;;;;12.75;10.23;;;12.90;99.90;;;;;;4930132;28;20408;-66
2023/04/22 07:51:39;;;;;;;14.02;11.00;;;12.90;99.90;;;;;;4937779;28;20089;-66
2023/04/22 07:54:05;;;;;;;11.52;10.32;;;13.00;99.90;;;;;;4948686;28;20129;-66
2023/04/22 07:56:31;;;;;;;11.13;9.20;;;13.10;99.90;;;;;;4924012;28;20056;-66
2023/04/22 07:58:57;;;;;;;13.57;10.68;;;13.20;99.90;;;;;;4931619;28;20058;-67
2023/04/22 08:01:23;;;;;;;11.77;9.43;;;13.20;99.90;;;;;;4949838;28;20055;-67
2023/04/22 08:03:48;;;;;;;11.20;10.02;;;13.30;99.90;;;;;;4946817;28;24330;-67
2023/04/22 08:06:14;;;;;;;13.90;9.90;;;13.40;99.90;;;;;;4953657;28;20137;-67
2023/04/22 08:08:40;;;;;;;12.23;9.70;;;13.50;99.90;;;;;;4948735;28;20126;-67
2023/04/22 08:11:06;;;;;;;13.52;9.73;;;13.50;99.90;;;;;;4948316;28;20383;-66
2023/04/22 08:13:32;;;;;;;11.02;9.43;;;13.60;99.90;;;;;;4935606;28;20109;-66
2023/04/22 08:16:01;;;;;;;13.05;9.55;;;13.70;99.90;;;;;;4932840;28;20046;-67
2023/04/22 08:18:28;;;;;;;12.98;10.07;;;13.80;99.90;;;;;;4945969;28;20046;-67
2023/04/22 08:20:54;;;;;;;11.30;9.43;;;13.90;99.90;;;;;;4953475;28;20075;-66
2023/04/22 08:23:20;;;;;;;11.60;10.40;;;13.90;99.90;;;;;;4947485;28;21165;-66
2023/04/22 08:25:46;;;;;;;14.38;10.30;;;14.10;99.90;;;;;;4949596;28;20102;-67
2023/04/22 08:28:13;;;;;;;11.88;10.02;;;14.10;99.90;;;;;;4941165;28;20043;-67
2023/04/22 08:30:38;;;;;;;12.82;11.30;;;14.30;99.90;;;;;;4934905;28;20561;-67
2023/04/22 08:33:04;;;;;;;11.98;10.77;;;14.40;99.90;;;;;;4930022;28;20042;-66
2023/04/22 08:35:30;;;;;;;12.98;11.57;;;14.50;99.90;;;;;;4945834;28;20046;-66
2023/04/22 08:37:56;;;;;;;13.38;10.68;;;14.60;99.90;;;;;;4936201;28;20524;-66
2023/04/22 08:40:21;;;;;;;14.98;11.15;;;14.80;99.90;;;;;;4928083;28;20457;-66
2023/04/22 08:42:48;;;;;;;12.93;11.55;;;14.90;99.90;;;;;;4946607;28;20064;-67
2023/04/22 08:45:15;;;;;;;13.95;10.75;;;15.00;99.90;;;;;;4953893;28;20049;-66
2023/04/22 08:47:41;;;;;;;15.82;11.10;;;15.10;99.90;;;;;;4944631;28;20035;-66
2023/04/22 08:50:08;;;;;;;16.40;11.35;;;15.20;99.90;;;;;;4943446;28;20058;-67
2023/04/22 08:52:34;;;;;;;12.80;10.98;;;15.30;99.90;;;;;;4946247;28;20054;-66
2023/04/22 08:55:00;;;;;;;11.40;9.95;;;15.40;99.90;;;;;;4937051;28;20522;-67
2023/04/22 08:57:27;;;;;;;12.25;10.30;;;15.50;99.90;;;;;;4946627;28;20078;-66
2023/04/22 08:59:55;;;;;;;11.82;10.15;;;15.60;99.90;;;;;;4944721;28;20490;-67
2023/04/22 09:02:22;;;;;;;13.05;9.77;;;15.70;99.90;;;;;;4944151;28;20131;-67
2023/04/22 09:04:50;;;;;;;13.82;9.82;;;15.80;99.90;;;;;;4941726;28;20498;-66
2023/04/22 09:07:25;;;;;;;11.38;9.75;;;15.90;99.90;;;;;;4935168;28;20046;-66
2023/04/22 09:09:53;;;;;;;11.25;10.00;;;16.00;99.90;;;;;;4946745;28;20058;-66
2023/04/22 09:12:20;;;;;;;12.05;9.52;;;16.00;99.90;;;;;;4944368;28;20046;-66
2023/04/22 09:14:46;;;;;;;11.95;10.05;;;16.10;99.90;;;;;;4946876;28;20563;-66
2023/04/22 09:17:28;;;;;;;12.85;10.15;;;16.10;99.90;;;;;;4944101;28;20543;-67
2023/04/22 09:20:02;;;;;;;12.33;9.90;;;16.20;99.90;;;;;;4942671;28;20046;-67
2023/04/22 09:22:36;;;;;;;12.48;9.90;;;16.40;99.90;;;;;;4953565;28;20027;-67
2023/04/22 09:25:06;;;;;;;11.35;9.70;;;16.40;99.90;;;;;;4935087;28;20665;-68
2023/04/22 09:27:34;;;;;;;11.25;9.98;;;16.60;99.90;;;;;;4951109;28;20039;-68
2023/04/22 09:30:00;;;;;;;11.68;9.30;;;16.70;99.90;;;;;;4955321;28;20058;-67
2023/04/22 09:32:26;;;;;;;14.48;9.93;;;16.80;99.90;;;;;;4947790;28;21469;-67
2023/04/22 09:34:53;;;;;;;12.23;9.60;;;17.00;99.90;;;;;;4953975;28;20097;-67
2023/04/22 09:37:25;;;;;;;10.27;9.15;;;17.10;99.90;;;;;;4953666;28;20053;-68
2023/04/22 09:39:52;;;;;;;11.48;9.05;;;17.20;99.90;;;;;;4951423;28;20512;-67
2023/04/22 09:42:18;;;;;;;12.98;9.43;;;17.40;99.90;;;;;;4951624;28;20047;-67
2023/04/22 09:44:46;;;;;;;11.15;9.48;;;17.50;99.90;;;;;;4959494;28;20375;-67
2023/04/22 09:47:12;;;;;;;10.18;8.70;;;17.60;99.90;;;;;;4948503;28;20081;-67
2023/04/22 09:49:39;;;;;;;11.60;8.48;;;17.70;99.90;;;;;;4958240;28;20035;-67
2023/04/22 09:52:05;;;;;;;11.13;8.50;;;17.80;99.90;;;;;;4956557;28;20106;-67
2023/04/22 09:54:31;;;;;;;12.20;8.68;;;17.90;99.90;;;;;;4934852;28;20414;-67
2023/04/22 09:56:57;;;;;;;10.20;8.80;;;17.90;99.90;;;;;;4947889;28;20039;-67
2023/04/22 09:59:28;;;;;;;11.60;8.25;;;17.90;99.90;;;;;;4953267;28;20626;-67
2023/04/22 10:01:59;;;;;;;12.48;8.77;;;17.90;99.90;;;;;;4948027;28;20054;-67
2023/04/22 10:04:24;;;;;;;11.40;8.38;;;18.00;99.90;;;;;;4956741;28;20058;-67
2023/04/22 10:06:54;;;;;;;9.18;7.85;;;18.00;99.90;;;;;;4941785;28;20050;-67
2023/04/22 10:09:21;;;;;;;11.93;8.10;;;18.10;99.90;;;;;;4930801;28;20074;-67
2023/04/22 10:11:50;;;;;;;9.18;7.60;;;18.30;99.90;;;;;;4945928;28;20047;-67
2023/04/22 10:14:16;;;;;;;8.77;7.38;;;18.40;99.90;;;;;;4946915;28;20047;-67
2023/04/22 10:16:45;;;;;;;9.88;7.55;;;18.50;99.90;;;;;;4954991;28;20097;-67
2023/04/22 10:19:18;;;;;;;8.82;7.40;;;18.70;99.90;;;;;;4952577;28;20417;-67
2023/04/22 10:21:46;;;;;;;7.80;7.00;;;18.80;99.90;;;;;;4945850;28;20134;-67
2023/04/22 10:24:17;;;;;;;10.15;6.90;;;19.00;99.90;;;;;;4953211;28;20071;-67
2023/04/22 10:26:53;;;;;;;7.88;6.72;;;19.10;99.90;;;;;;4948954;28;20462;-67
2023/04/22 10:29:20;;;;;;;8.43;6.75;;;19.30;99.90;;;;;;4951128;28;20122;-68
2023/04/22 10:32:04;;;;;;;9.23;6.43;;;19.40;99.90;;;;;;4921106;28;20487;-67
2023/04/22 10:34:31;;;;;;;7.47;6.78;;;19.60;99.90;;;;;;4945972;28;20108;-67
2023/04/22 10:37:08;;;;;;;8.18;6.80;;;19.80;99.90;;;;;;4952113;28;20080;-67
2023/04/22 10:39:34;;;;;;;9.23;6.95;;;19.80;99.90;;;;;;4950558;28;20494;-67
2023/04/22 10:42:06;;;;;;;9.90;6.93;;;19.90;99.90;;;;;;4950325;28;25977;-67
2023/04/22 10:44:50;;;;;;;9.68;7.10;;;20.00;99.80;;;;;;4932892;28;20438;-67
2023/04/22 10:47:29;;;;;;;7.60;6.68;;;20.00;99.90;;;;;;4951568;28;20038;-67
2023/04/22 10:50:18;;;;;;;8.57;7.53;;;20.10;99.90;;;;;;4950520;28;20125;-67
2023/04/22 10:52:54;;;;;;;10.65;7.00;;;20.20;99.90;;;;;;4955998;28;20043;-67
2023/04/22 10:55:20;;;;;;;10.63;7.20;;;20.40;99.50;;;;;;4933150;28;20047;-67
2023/04/22 10:57:48;;;;;;;9.25;7.50;;;20.50;99.80;;;;;;4947527;28;20043;-67
2023/04/22 11:00:24;;;;;;;8.63;7.10;;;20.70;99.60;;;;;;4932983;28;20149;-65
2023/04/22 11:03:11;;;;;;;8.43;7.22;;;20.80;99.30;;;;;;4932005;28;21113;-65
2023/04/22 11:05:38;;;;;;;7.45;6.47;;;21.00;98.70;;;;;;4949865;28;20422;-64
2023/04/22 11:08:13;;;;;;;8.68;6.22;;;21.20;99.20;;;;;;4943633;28;20057;-66
2023/04/22 11:10:45;;;;;;;8.40;6.63;;;21.40;98.90;;;;;;4941848;28;20035;-65
2023/04/22 11:13:19;;;;;;;7.22;6.35;;;21.40;97.40;;;;;;4946224;28;20043;-65
2023/04/22 11:15:48;;;;;;;7.38;6.55;;;21.40;97.00;;;;;;4940076;28;20513;-65
2023/04/22 11:18:25;;;;;;;9.10;7.05;;;21.60;97.00;;;;;;4931180;28;20386;-65
2023/04/22 11:20:52;;;;;;;7.30;6.45;;;21.70;96.60;;;;;;4937189;28;20876;-65
2023/04/22 11:23:27;;;;;;;8.98;7.32;;;21.80;96.40;;;;;;4946765;28;20047;-64
2023/04/22 11:25:55;;;;;;;8.70;7.00;;;21.90;95.90;;;;;;4947690;28;20075;-66
2023/04/22 11:28:21;;;;;;;8.95;6.32;;;22.10;95.60;;;;;;4953651;28;20058;-66
2023/04/22 11:30:48;;;;;;;7.40;6.15;;;22.20;95.60;;;;;;4950389;28;20080;-66
2023/04/22 11:33:15;;;;;;;10.20;6.78;;;22.30;96.00;;;;;;4944398;28;20043;-66
2023/04/22 11:35:41;;;;;;;10.63;6.40;;;22.60;96.20;;;;;;4931786;28;20070;-66
2023/04/22 11:38:08;;;;;;;6.80;6.10;;;22.70;94.90;;;;;;4882464;28;20058;-66
2023/04/22 11:40:35;;;;;;;8.85;6.25;;;22.70;93.90;;;;;;4933628;28;20462;-66
2023/04/22 11:43:03;;;;;;;6.68;5.97;;;22.70;93.30;;;;;;4950914;28;20046;-66
2023/04/22 11:45:31;;;;;;;8.98;5.70;;;22.70;92.70;;;;;;4946695;28;20593;-65
2023/04/22 11:47:58;;;;;;;7.20;6.45;;;22.80;92.30;;;;;;4939661;28;20542;-66
2023/04/22 11:50:26;;;;;;;11.15;6.25;;;22.70;91.70;;;;;;4935853;28;20078;-66
2023/04/22 11:53:02;;;;;;;9.27;5.68;;;22.70;91.40;;;;;;4946075;28;20225;-66
2023/04/22 11:55:33;;;;;;;11.13;6.20;;;22.80;92.40;;;;;;4946247;28;20204;-66
2023/04/22 11:58:10;;;;;;;8.27;5.75;;;22.90;92.30;;;;;;4928765;28;21931;-66
2023/04/22 12:00:43;;;;;;;7.45;6.05;;;23.00;91.80;;;;;;4955966;28;20042;-66
2023/04/22 12:03:17;;;;;;;6.63;5.82;;;23.10;90.60;;;;;;4947102;28;20062;-66
2023/04/22 12:05:43;;;;;;;7.45;5.80;;;23.20;90.50;;;;;;4938878;28;20101;-67
2023/04/22 12:08:15;;;;;;;8.13;6.38;;;23.30;90.30;;;;;;4942888;28;21486;-67
2023/04/22 12:10:56;;;;;;;6.65;5.88;;;23.50;87.90;;;;;;4945989;28;20051;-66
2023/04/22 12:13:40;;;;;;;9.98;6.00;;;23.50;87.50;;;;;;4946580;28;20455;-66
2023/04/22 12:16:13;;;;;;;7.32;6.00;;;23.60;86.20;;;;;;4932966;28;20110;-66
2023/04/22 12:19:00;;;;;;;6.90;5.95;;;23.50;84.00;;;;;;4919824;28;20062;-66
2023/04/22 12:21:31;;;;;;;8.43;5.25;;;23.30;82.70;;;;;;4938012;28;20070;-65
2023/04/22 12:23:58;;;;;;;6.50;5.38;;;23.20;84.50;;;;;;4926910;28;20092;-66
2023/04/22 12:26:28;;;;;;;8.60;4.95;;;23.20;83.50;;;;;;4942377;28;20504;-65
2023/04/22 12:28:59;;;;;;;7.03;5.10;;;23.00;82.80;;;;;;4945052;28;20137;-65
2023/04/22 12:31:25;;;;;;;7.80;5.20;;;22.80;83.40;;;;;;4942001;28;20446;-65
2023/04/22 12:33:52;;;;;;;5.50;4.90;;;22.60;84.40;;;;;;4930539;28;20060;-65
2023/04/22 12:36:22;;;;;;;4.93;4.40;;;22.40;83.80;;;;;;4942250;28;20150;-65